sensor_id;sensor_type;location;lat;lon;timestamp;P1;durP1;ratioP1;P2;durP2;ratioP2
75554;SDS011;66087;53.126;17.960;2023-09-19T00:00:44;15.80;;;12.70;;
75554;SDS011;66087;53.126;17.960;2023-09-19T00:03:53;18.80;;;13.00;;
75554;SDS011;66087;53.126;17.960;2023-09-19T00:06:30;18.80;;;13.10;;
75554;SDS011;66087;53.126;17.960;2023-09-19T00:09:17;15.40;;;11.00;;
75554;SDS011;66087;53.126;17.960;2023-09-19T00:11:51;17.90;;;13.40;;
75554;SDS011;66087;53.126;17.960;2023-09-19T00:14:58;14.70;;;10.60;;
75554;SDS011;66087;53.126;17.960;2023-09-19T00:17:33;17.90;;;13.20;;
75554;SDS011;66087;53.126;17.960;2023-09-19T00:20:20;21.10;;;14.90;;
75554;SDS011;66087;53.126;17.960;2023-09-19T00:22:55;20.00;;;14.90;;
75554;SDS011;66087;53.126;17.960;2023-09-19T00:25:37;17.80;;;13.40;;
75554;SDS011;66087;53.126;17.960;2023-09-19T00:28:17;16.20;;;11.60;;
75554;SDS011;66087;53.126;17.960;2023-09-19T00:30:58;18.40;;;11.80;;
75554;SDS011;66087;53.126;17.960;2023-09-19T00:33:40;20.30;;;12.00;;
75554;SDS011;66087;53.126;17.960;2023-09-19T00:36:21;13.40;;;8.60;;
75554;SDS011;66087;53.126;17.960;2023-09-19T00:39:02;15.20;;;8.90;;
75554;SDS011;66087;53.126;17.960;2023-09-19T00:41:43;15.00;;;7.60;;
75554;SDS011;66087;53.126;17.960;2023-09-19T00:44:24;12.00;;;7.60;;
75554;SDS011;66087;53.126;17.960;2023-09-19T00:47:07;10.80;;;6.70;;
75554;SDS011;66087;53.126;17.960;2023-09-19T00:49:48;14.40;;;7.00;;
75554;SDS011;66087;53.126;17.960;2023-09-19T00:52:31;13.40;;;7.50;;
75554;SDS011;66087;53.126;17.960;2023-09-19T00:55:11;12.20;;;6.50;;
75554;SDS011;66087;53.126;17.960;2023-09-19T00:57:57;11.00;;;7.30;;
75554;SDS011;66087;53.126;17.960;2023-09-19T01:00:38;12.90;;;7.30;;
75554;SDS011;66087;53.126;17.960;2023-09-19T01:03:34;13.30;;;6.90;;
75554;SDS011;66087;53.126;17.960;2023-09-19T01:06:30;11.20;;;6.10;;
75554;SDS011;66087;53.126;17.960;2023-09-19T01:09:25;10.40;;;5.40;;
75554;SDS011;66087;53.126;17.960;2023-09-19T01:12:23;12.90;;;6.40;;
75554;SDS011;66087;53.126;17.960;2023-09-19T01:15:50;10.30;;;6.00;;
75554;SDS011;66087;53.126;17.960;2023-09-19T01:21:51;8.60;;;5.20;;
75554;SDS011;66087;53.126;17.960;2023-09-19T01:31:02;8.10;;;4.90;;
75554;SDS011;66087;53.126;17.960;2023-09-19T01:36:43;7.60;;;4.00;;
75554;SDS011;66087;53.126;17.960;2023-09-19T01:39:17;13.70;;;4.40;;
75554;SDS011;66087;53.126;17.960;2023-09-19T01:42:08;8.70;;;4.60;;
75554;SDS011;66087;53.126;17.960;2023-09-19T01:44:56;7.30;;;3.70;;
75554;SDS011;66087;53.126;17.960;2023-09-19T01:47:51;8.60;;;3.40;;
75554;SDS011;66087;53.126;17.960;2023-09-19T01:50:30;9.00;;;4.40;;
75554;SDS011;66087;53.126;17.960;2023-09-19T01:53:40;9.00;;;3.60;;
75554;SDS011;66087;53.126;17.960;2023-09-19T01:56:42;8.70;;;4.00;;
75554;SDS011;66087;53.126;17.960;2023-09-19T01:59:43;11.40;;;4.10;;
75554;SDS011;66087;53.126;17.960;2023-09-19T02:02:52;7.20;;;3.80;;
75554;SDS011;66087;53.126;17.960;2023-09-19T02:05:51;8.30;;;4.20;;
75554;SDS011;66087;53.126;17.960;2023-09-19T02:08:45;8.60;;;10.30;;
75554;SDS011;66087;53.126;17.960;2023-09-19T02:11:39;7.70;;;3.70;;
75554;SDS011;66087;53.126;17.960;2023-09-19T02:14:33;8.60;;;3.10;;
75554;SDS011;66087;53.126;17.960;2023-09-19T02:17:27;9.10;;;4.60;;
75554;SDS011;66087;53.126;17.960;2023-09-19T02:20:21;6.80;;;3.50;;
75554;SDS011;66087;53.126;17.960;2023-09-19T02:22:55;10.90;;;4.40;;
75554;SDS011;66087;53.126;17.960;2023-09-19T02:25:42;6.00;;;3.40;;
75554;SDS011;66087;53.126;17.960;2023-09-19T02:28:17;8.10;;;4.10;;
75554;SDS011;66087;53.126;17.960;2023-09-19T02:31:09;9.80;;;5.80;;
75554;SDS011;66087;53.126;17.960;2023-09-19T02:34:03;9.10;;;4.80;;
75554;SDS011;66087;53.126;17.960;2023-09-19T02:36:50;12.40;;;5.90;;
75554;SDS011;66087;53.126;17.960;2023-09-19T02:39:26;11.20;;;6.00;;
75554;SDS011;66087;53.126;17.960;2023-09-19T02:42:13;12.60;;;6.60;;
75554;SDS011;66087;53.126;17.960;2023-09-19T02:44:46;10.60;;;6.50;;
75554;SDS011;66087;53.126;17.960;2023-09-19T02:47:33;8.70;;;5.70;;
75554;SDS011;66087;53.126;17.960;2023-09-19T02:50:08;9.80;;;4.90;;
75554;SDS011;66087;53.126;17.960;2023-09-19T02:52:56;10.40;;;4.80;;
75554;SDS011;66087;53.126;17.960;2023-09-19T02:55:29;14.10;;;4.60;;
75554;SDS011;66087;53.126;17.960;2023-09-19T02:58:17;8.70;;;4.30;;
75554;SDS011;66087;53.126;17.960;2023-09-19T03:00:50;8.40;;;5.00;;
75554;SDS011;66087;53.126;17.960;2023-09-19T03:03:38;11.20;;;6.10;;
75554;SDS011;66087;53.126;17.960;2023-09-19T03:06:13;8.60;;;5.10;;
75554;SDS011;66087;53.126;17.960;2023-09-19T03:08:59;9.80;;;4.50;;
75554;SDS011;66087;53.126;17.960;2023-09-19T03:11:52;10.10;;;4.90;;
75554;SDS011;66087;53.126;17.960;2023-09-19T03:14:41;10.10;;;4.80;;
75554;SDS011;66087;53.126;17.960;2023-09-19T03:17:15;8.70;;;4.20;;
75554;SDS011;66087;53.126;17.960;2023-09-19T03:20:02;9.30;;;4.40;;
75554;SDS011;66087;53.126;17.960;2023-09-19T03:22:47;8.60;;;3.90;;
75554;SDS011;66087;53.126;17.960;2023-09-19T03:25:34;8.30;;;4.70;;
75554;SDS011;66087;53.126;17.960;2023-09-19T03:28:09;8.50;;;3.50;;
75554;SDS011;66087;53.126;17.960;2023-09-19T03:31:03;6.70;;;3.80;;
75554;SDS011;66087;53.126;17.960;2023-09-19T03:33:38;8.80;;;4.30;;
75554;SDS011;66087;53.126;17.960;2023-09-19T03:36:24;7.10;;;3.40;;
75554;SDS011;66087;53.126;17.960;2023-09-19T03:39:01;7.20;;;4.00;;
75554;SDS011;66087;53.126;17.960;2023-09-19T03:41:48;9.10;;;4.20;;
75554;SDS011;66087;53.126;17.960;2023-09-19T03:44:22;8.20;;;4.50;;
75554;SDS011;66087;53.126;17.960;2023-09-19T03:47:08;10.40;;;4.10;;
75554;SDS011;66087;53.126;17.960;2023-09-19T03:49:42;8.30;;;3.10;;
75554;SDS011;66087;53.126;17.960;2023-09-19T03:52:29;7.40;;;4.10;;
75554;SDS011;66087;53.126;17.960;2023-09-19T03:55:03;9.80;;;5.30;;
75554;SDS011;66087;53.126;17.960;2023-09-19T03:57:52;8.70;;;3.50;;
75554;SDS011;66087;53.126;17.960;2023-09-19T04:00:27;7.50;;;4.10;;
75554;SDS011;66087;53.126;17.960;2023-09-19T04:03:14;8.60;;;4.40;;
75554;SDS011;66087;53.126;17.960;2023-09-19T04:05:52;9.90;;;3.20;;
75554;SDS011;66087;53.126;17.960;2023-09-19T04:08:46;6.50;;;4.20;;
75554;SDS011;66087;53.126;17.960;2023-09-19T04:11:40;8.50;;;3.60;;
75554;SDS011;66087;53.126;17.960;2023-09-19T04:14:34;9.20;;;4.10;;
75554;SDS011;66087;53.126;17.960;2023-09-19T04:17:28;8.10;;;4.00;;
75554;SDS011;66087;53.126;17.960;2023-09-19T04:20:22;8.80;;;3.90;;
75554;SDS011;66087;53.126;17.960;2023-09-19T04:23:16;11.40;;;3.90;;
75554;SDS011;66087;53.126;17.960;2023-09-19T04:25:59;5.70;;;2.80;;
75554;SDS011;66087;53.126;17.960;2023-09-19T04:28:41;8.00;;;3.30;;
75554;SDS011;66087;53.126;17.960;2023-09-19T04:31:21;10.00;;;3.50;;
75554;SDS011;66087;53.126;17.960;2023-09-19T04:34:01;6.80;;;3.20;;
75554;SDS011;66087;53.126;17.960;2023-09-19T04:36:45;6.80;;;3.20;;
75554;SDS011;66087;53.126;17.960;2023-09-19T04:39:41;9.10;;;3.50;;
75554;SDS011;66087;53.126;17.960;2023-09-19T04:42:37;5.50;;;2.60;;
75554;SDS011;66087;53.126;17.960;2023-09-19T04:45:31;6.00;;;3.20;;
75554;SDS011;66087;53.126;17.960;2023-09-19T04:48:25;7.70;;;3.30;;
75554;SDS011;66087;53.126;17.960;2023-09-19T04:51:22;5.70;;;3.00;;
75554;SDS011;66087;53.126;17.960;2023-09-19T04:54:21;6.60;;;2.90;;
75554;SDS011;66087;53.126;17.960;2023-09-19T04:57:16;7.30;;;3.20;;
75554;SDS011;66087;53.126;17.960;2023-09-19T05:00:10;7.60;;;3.60;;
75554;SDS011;66087;53.126;17.960;2023-09-19T05:03:07;5.40;;;3.00;;
75554;SDS011;66087;53.126;17.960;2023-09-19T05:08:56;6.30;;;3.30;;
75554;SDS011;66087;53.126;17.960;2023-09-19T05:11:36;6.50;;;2.70;;
75554;SDS011;66087;53.126;17.960;2023-09-19T05:14:16;7.80;;;3.50;;
75554;SDS011;66087;53.126;17.960;2023-09-19T05:16:56;8.00;;;2.90;;
75554;SDS011;66087;53.126;17.960;2023-09-19T05:19:38;6.90;;;3.10;;
75554;SDS011;66087;53.126;17.960;2023-09-19T05:22:18;6.40;;;3.10;;
75554;SDS011;66087;53.126;17.960;2023-09-19T05:24:58;8.10;;;3.30;;
75554;SDS011;66087;53.126;17.960;2023-09-19T05:27:39;6.50;;;2.70;;
75554;SDS011;66087;53.126;17.960;2023-09-19T05:30:20;23.30;;;3.90;;
75554;SDS011;66087;53.126;17.960;2023-09-19T05:32:53;5.70;;;3.30;;
75554;SDS011;66087;53.126;17.960;2023-09-19T05:35:27;8.80;;;4.60;;
75554;SDS011;66087;53.126;17.960;2023-09-19T05:38:07;9.00;;;3.40;;
75554;SDS011;66087;53.126;17.960;2023-09-19T05:40:49;9.00;;;3.40;;
75554;SDS011;66087;53.126;17.960;2023-09-19T05:43:30;6.50;;;3.20;;
75554;SDS011;66087;53.126;17.960;2023-09-19T05:46:11;6.30;;;3.20;;
75554;SDS011;66087;53.126;17.960;2023-09-19T05:48:51;5.80;;;2.40;;
75554;SDS011;66087;53.126;17.960;2023-09-19T05:51:31;7.40;;;3.60;;
75554;SDS011;66087;53.126;17.960;2023-09-19T05:54:11;6.90;;;2.70;;
75554;SDS011;66087;53.126;17.960;2023-09-19T05:56:51;6.40;;;3.50;;
75554;SDS011;66087;53.126;17.960;2023-09-19T05:59:31;8.20;;;4.00;;
75554;SDS011;66087;53.126;17.960;2023-09-19T06:02:13;4.90;;;2.20;;
75554;SDS011;66087;53.126;17.960;2023-09-19T06:05:13;6.30;;;2.60;;
75554;SDS011;66087;53.126;17.960;2023-09-19T06:07:54;6.70;;;4.20;;
75554;SDS011;66087;53.126;17.960;2023-09-19T06:11:01;8.30;;;4.20;;
75554;SDS011;66087;53.126;17.960;2023-09-19T06:13:54;11.00;;;4.00;;
75554;SDS011;66087;53.126;17.960;2023-09-19T06:19:16;8.50;;;4.50;;
75554;SDS011;66087;53.126;17.960;2023-09-19T06:22:06;6.80;;;3.50;;
75554;SDS011;66087;53.126;17.960;2023-09-19T06:24:40;5.90;;;2.60;;
75554;SDS011;66087;53.126;17.960;2023-09-19T06:27:29;8.20;;;4.70;;
75554;SDS011;66087;53.126;17.960;2023-09-19T06:30:02;5.90;;;3.80;;
75554;SDS011;66087;53.126;17.960;2023-09-19T06:32:45;7.80;;;4.20;;
75554;SDS011;66087;53.126;17.960;2023-09-19T06:35:25;9.00;;;5.20;;
75554;SDS011;66087;53.126;17.960;2023-09-19T06:38:06;7.20;;;4.30;;
75554;SDS011;66087;53.126;17.960;2023-09-19T06:40:47;9.40;;;5.40;;
75554;SDS011;66087;53.126;17.960;2023-09-19T06:43:21;6.90;;;4.10;;
75554;SDS011;66087;53.126;17.960;2023-09-19T06:46:10;7.30;;;3.80;;
75554;SDS011;66087;53.126;17.960;2023-09-19T06:48:46;8.00;;;4.00;;
75554;SDS011;66087;53.126;17.960;2023-09-19T06:51:33;8.60;;;4.80;;
75554;SDS011;66087;53.126;17.960;2023-09-19T06:54:07;10.60;;;4.00;;
75554;SDS011;66087;53.126;17.960;2023-09-19T06:56:54;7.40;;;4.50;;
75554;SDS011;66087;53.126;17.960;2023-09-19T06:59:30;6.90;;;3.60;;
75554;SDS011;66087;53.126;17.960;2023-09-19T07:02:18;9.00;;;5.30;;
75554;SDS011;66087;53.126;17.960;2023-09-19T07:04:52;9.20;;;4.90;;
75554;SDS011;66087;53.126;17.960;2023-09-19T07:07:40;13.00;;;7.20;;
75554;SDS011;66087;53.126;17.960;2023-09-19T07:10:14;7.70;;;5.00;;
75554;SDS011;66087;53.126;17.960;2023-09-19T07:13:06;7.70;;;3.80;;
75554;SDS011;66087;53.126;17.960;2023-09-19T07:15:43;7.30;;;4.30;;
75554;SDS011;66087;53.126;17.960;2023-09-19T07:18:31;8.50;;;4.30;;
75554;SDS011;66087;53.126;17.960;2023-09-19T07:21:05;7.50;;;3.30;;
75554;SDS011;66087;53.126;17.960;2023-09-19T07:23:55;6.70;;;3.60;;
75554;SDS011;66087;53.126;17.960;2023-09-19T07:26:35;8.10;;;3.90;;
75554;SDS011;66087;53.126;17.960;2023-09-19T07:29:15;9.40;;;4.00;;
75554;SDS011;66087;53.126;17.960;2023-09-19T07:31:55;9.40;;;4.80;;
75554;SDS011;66087;53.126;17.960;2023-09-19T07:34:35;7.10;;;3.80;;
75554;SDS011;66087;53.126;17.960;2023-09-19T07:37:15;6.50;;;4.10;;
75554;SDS011;66087;53.126;17.960;2023-09-19T07:39:59;9.20;;;5.00;;
75554;SDS011;66087;53.126;17.960;2023-09-19T07:42:33;8.20;;;4.10;;
75554;SDS011;66087;53.126;17.960;2023-09-19T07:48:06;7.60;;;4.60;;
75554;SDS011;66087;53.126;17.960;2023-09-19T07:50:47;7.60;;;5.20;;
75554;SDS011;66087;53.126;17.960;2023-09-19T07:53:32;6.80;;;3.40;;
75554;SDS011;66087;53.126;17.960;2023-09-19T07:56:39;7.20;;;4.70;;
75554;SDS011;66087;53.126;17.960;2023-09-19T07:59:40;7.00;;;3.90;;
75554;SDS011;66087;53.126;17.960;2023-09-19T08:02:20;8.00;;;5.20;;
75554;SDS011;66087;53.126;17.960;2023-09-19T08:05:02;7.40;;;3.80;;
75554;SDS011;66087;53.126;17.960;2023-09-19T08:07:44;9.00;;;5.30;;
75554;SDS011;66087;53.126;17.960;2023-09-19T08:10:28;8.70;;;4.30;;
75554;SDS011;66087;53.126;17.960;2023-09-19T08:13:08;7.20;;;4.10;;
75554;SDS011;66087;53.126;17.960;2023-09-19T08:15:53;7.10;;;3.80;;
75554;SDS011;66087;53.126;17.960;2023-09-19T08:18:33;8.40;;;4.00;;
75554;SDS011;66087;53.126;17.960;2023-09-19T08:21:13;8.00;;;4.30;;
75554;SDS011;66087;53.126;17.960;2023-09-19T08:23:55;6.10;;;3.50;;
75554;SDS011;66087;53.126;17.960;2023-09-19T08:26:36;7.10;;;3.40;;
75554;SDS011;66087;53.126;17.960;2023-09-19T08:29:17;8.00;;;4.70;;
75554;SDS011;66087;53.126;17.960;2023-09-19T08:31:50;8.10;;;5.00;;
75554;SDS011;66087;53.126;17.960;2023-09-19T08:34:24;5.70;;;3.90;;
75554;SDS011;66087;53.126;17.960;2023-09-19T08:37:06;8.60;;;4.30;;
75554;SDS011;66087;53.126;17.960;2023-09-19T08:39:39;7.10;;;4.50;;
75554;SDS011;66087;53.126;17.960;2023-09-19T08:42:14;5.60;;;3.60;;
75554;SDS011;66087;53.126;17.960;2023-09-19T08:44:57;5.60;;;3.80;;
75554;SDS011;66087;53.126;17.960;2023-09-19T08:47:54;7.40;;;4.00;;
75554;SDS011;66087;53.126;17.960;2023-09-19T08:50:39;7.40;;;4.40;;
75554;SDS011;66087;53.126;17.960;2023-09-19T08:53:47;9.30;;;4.80;;
75554;SDS011;66087;53.126;17.960;2023-09-19T08:56:33;7.10;;;4.30;;
75554;SDS011;66087;53.126;17.960;2023-09-19T08:59:13;7.30;;;4.40;;
75554;SDS011;66087;53.126;17.960;2023-09-19T09:01:55;6.00;;;3.20;;
75554;SDS011;66087;53.126;17.960;2023-09-19T09:04:56;8.10;;;3.40;;
75554;SDS011;66087;53.126;17.960;2023-09-19T09:07:40;5.10;;;2.90;;
75554;SDS011;66087;53.126;17.960;2023-09-19T09:10:20;5.40;;;2.30;;
75554;SDS011;66087;53.126;17.960;2023-09-19T09:13:02;4.20;;;2.40;;
75554;SDS011;66087;53.126;17.960;2023-09-19T09:15:43;6.40;;;2.30;;
75554;SDS011;66087;53.126;17.960;2023-09-19T09:18:24;5.90;;;2.80;;
75554;SDS011;66087;53.126;17.960;2023-09-19T09:21:05;8.40;;;2.30;;
75554;SDS011;66087;53.126;17.960;2023-09-19T09:23:47;5.20;;;2.40;;
75554;SDS011;66087;53.126;17.960;2023-09-19T09:26:41;3.80;;;2.20;;
75554;SDS011;66087;53.126;17.960;2023-09-19T09:29:17;4.20;;;2.00;;
75554;SDS011;66087;53.126;17.960;2023-09-19T09:32:29;5.70;;;2.10;;
75554;SDS011;66087;53.126;17.960;2023-09-19T09:35:07;4.70;;;1.80;;
75554;SDS011;66087;53.126;17.960;2023-09-19T09:37:59;3.30;;;1.80;;
75554;SDS011;66087;53.126;17.960;2023-09-19T09:40:48;4.80;;;2.10;;
75554;SDS011;66087;53.126;17.960;2023-09-19T09:43:40;3.60;;;1.70;;
75554;SDS011;66087;53.126;17.960;2023-09-19T09:46:21;3.70;;;2.30;;
75554;SDS011;66087;53.126;17.960;2023-09-19T09:49:28;3.70;;;1.90;;
75554;SDS011;66087;53.126;17.960;2023-09-19T09:52:08;4.40;;;2.00;;
75554;SDS011;66087;53.126;17.960;2023-09-19T09:55:09;4.90;;;1.80;;
75554;SDS011;66087;53.126;17.960;2023-09-19T09:57:52;4.40;;;2.00;;
75554;SDS011;66087;53.126;17.960;2023-09-19T10:01:02;3.80;;;1.40;;
75554;SDS011;66087;53.126;17.960;2023-09-19T10:03:57;3.60;;;1.60;;
75554;SDS011;66087;53.126;17.960;2023-09-19T10:06:40;3.40;;;2.10;;
75554;SDS011;66087;53.126;17.960;2023-09-19T10:09:28;3.80;;;1.70;;
75554;SDS011;66087;53.126;17.960;2023-09-19T10:12:08;5.10;;;1.80;;
75554;SDS011;66087;53.126;17.960;2023-09-19T10:14:59;3.20;;;1.50;;
75554;SDS011;66087;53.126;17.960;2023-09-19T10:17:34;3.90;;;2.00;;
75554;SDS011;66087;53.126;17.960;2023-09-19T10:23:07;5.90;;;1.90;;
75554;SDS011;66087;53.126;17.960;2023-09-19T10:25:59;5.00;;;1.90;;
75554;SDS011;66087;53.126;17.960;2023-09-19T10:28:41;4.90;;;1.70;;
75554;SDS011;66087;53.126;17.960;2023-09-19T10:31:22;5.60;;;1.70;;
75554;SDS011;66087;53.126;17.960;2023-09-19T10:34:05;3.30;;;1.50;;
75554;SDS011;66087;53.126;17.960;2023-09-19T10:36:46;3.80;;;1.60;;
75554;SDS011;66087;53.126;17.960;2023-09-19T10:39:26;5.40;;;1.50;;
75554;SDS011;66087;53.126;17.960;2023-09-19T10:42:13;3.00;;;1.10;;
75554;SDS011;66087;53.126;17.960;2023-09-19T10:44:57;4.20;;;1.20;;
75554;SDS011;66087;53.126;17.960;2023-09-19T10:47:52;3.20;;;1.40;;
75554;SDS011;66087;53.126;17.960;2023-09-19T10:50:27;2.70;;;1.40;;
75554;SDS011;66087;53.126;17.960;2023-09-19T10:53:17;3.60;;;1.80;;
75554;SDS011;66087;53.126;17.960;2023-09-19T10:55:57;4.30;;;1.60;;
75554;SDS011;66087;53.126;17.960;2023-09-19T10:59:09;5.10;;;1.50;;
75554;SDS011;66087;53.126;17.960;2023-09-19T11:01:49;4.40;;;2.00;;
75554;SDS011;66087;53.126;17.960;2023-09-19T11:04:39;6.00;;;1.60;;
75554;SDS011;66087;53.126;17.960;2023-09-19T11:07:21;2.90;;;1.00;;
75554;SDS011;66087;53.126;17.960;2023-09-19T11:10:09;3.60;;;1.40;;
75554;SDS011;66087;53.126;17.960;2023-09-19T11:16:25;3.10;;;1.20;;
75554;SDS011;66087;53.126;17.960;2023-09-19T11:19:20;3.10;;;1.50;;
75554;SDS011;66087;53.126;17.960;2023-09-19T11:22:16;4.00;;;1.40;;
75554;SDS011;66087;53.126;17.960;2023-09-19T11:25:41;5.00;;;1.30;;
75554;SDS011;66087;53.126;17.960;2023-09-19T11:28:41;2.80;;;1.50;;
75554;SDS011;66087;53.126;17.960;2023-09-19T11:31:41;3.20;;;1.10;;
75554;SDS011;66087;53.126;17.960;2023-09-19T11:34:39;4.00;;;1.30;;
75554;SDS011;66087;53.126;17.960;2023-09-19T11:44:32;8.80;;;2.10;;
75554;SDS011;66087;53.126;17.960;2023-09-19T11:47:08;5.00;;;1.20;;
75554;SDS011;66087;53.126;17.960;2023-09-19T11:49:57;6.50;;;2.00;;
75554;SDS011;66087;53.126;17.960;2023-09-19T11:52:35;3.80;;;1.20;;
75554;SDS011;66087;53.126;17.960;2023-09-19T11:55:28;3.50;;;1.40;;
75554;SDS011;66087;53.126;17.960;2023-09-19T11:58:15;4.00;;;1.00;;
75554;SDS011;66087;53.126;17.960;2023-09-19T12:01:12;3.50;;;1.30;;
75554;SDS011;66087;53.126;17.960;2023-09-19T12:04:08;4.20;;;1.10;;
75554;SDS011;66087;53.126;17.960;2023-09-19T12:07:32;3.50;;;1.30;;
75554;SDS011;66087;53.126;17.960;2023-09-19T12:10:45;3.90;;;1.30;;
75554;SDS011;66087;53.126;17.960;2023-09-19T12:13:42;3.30;;;1.40;;
75554;SDS011;66087;53.126;17.960;2023-09-19T12:16:37;2.80;;;1.30;;
75554;SDS011;66087;53.126;17.960;2023-09-19T12:19:33;4.40;;;1.30;;
75554;SDS011;66087;53.126;17.960;2023-09-19T12:22:28;4.50;;;2.10;;
75554;SDS011;66087;53.126;17.960;2023-09-19T12:28:41;2.50;;;1.10;;
75554;SDS011;66087;53.126;17.960;2023-09-19T12:31:17;2.30;;;1.30;;
75554;SDS011;66087;53.126;17.960;2023-09-19T12:34:08;2.90;;;1.00;;
75554;SDS011;66087;53.126;17.960;2023-09-19T12:36:42;2.60;;;0.90;;
75554;SDS011;66087;53.126;17.960;2023-09-19T12:39:30;2.90;;;1.20;;
75554;SDS011;66087;53.126;17.960;2023-09-19T12:42:04;2.90;;;1.10;;
75554;SDS011;66087;53.126;17.960;2023-09-19T12:44:56;4.30;;;1.40;;
75554;SDS011;66087;53.126;17.960;2023-09-19T12:47:30;3.60;;;1.80;;
75554;SDS011;66087;53.126;17.960;2023-09-19T12:50:17;5.50;;;1.10;;
75554;SDS011;66087;53.126;17.960;2023-09-19T12:52:52;2.10;;;1.00;;
75554;SDS011;66087;53.126;17.960;2023-09-19T12:55:40;3.30;;;1.10;;
75554;SDS011;66087;53.126;17.960;2023-09-19T12:58:15;7.60;;;1.90;;
75554;SDS011;66087;53.126;17.960;2023-09-19T13:01:02;2.40;;;1.10;;
75554;SDS011;66087;53.126;17.960;2023-09-19T13:03:46;4.40;;;1.50;;
75554;SDS011;66087;53.126;17.960;2023-09-19T13:07:39;4.00;;;1.80;;
75554;SDS011;66087;53.126;17.960;2023-09-19T13:10:20;3.90;;;1.40;;
75554;SDS011;66087;53.126;17.960;2023-09-19T13:13:22;5.20;;;1.70;;
75554;SDS011;66087;53.126;17.960;2023-09-19T13:16:01;3.50;;;1.30;;
75554;SDS011;66087;53.126;17.960;2023-09-19T13:18:56;4.60;;;1.80;;
75554;SDS011;66087;53.126;17.960;2023-09-19T13:21:50;5.00;;;1.70;;
75554;SDS011;66087;53.126;17.960;2023-09-19T13:24:44;3.90;;;1.90;;
75554;SDS011;66087;53.126;17.960;2023-09-19T13:27:38;5.70;;;1.80;;
75554;SDS011;66087;53.126;17.960;2023-09-19T13:30:12;5.70;;;3.40;;
75554;SDS011;66087;53.126;17.960;2023-09-19T13:33:08;3.80;;;2.30;;
75554;SDS011;66087;53.126;17.960;2023-09-19T13:35:53;3.70;;;2.10;;
75554;SDS011;66087;53.126;17.960;2023-09-19T13:38:40;5.60;;;3.10;;
75554;SDS011;66087;53.126;17.960;2023-09-19T13:41:17;4.10;;;2.10;;
75554;SDS011;66087;53.126;17.960;2023-09-19T13:44:06;4.60;;;2.80;;
75554;SDS011;66087;53.126;17.960;2023-09-19T13:46:39;5.40;;;1.80;;
75554;SDS011;66087;53.126;17.960;2023-09-19T13:49:34;4.70;;;2.60;;
75554;SDS011;66087;53.126;17.960;2023-09-19T13:52:29;4.30;;;1.60;;
75554;SDS011;66087;53.126;17.960;2023-09-19T13:55:25;5.10;;;1.50;;
75554;SDS011;66087;53.126;17.960;2023-09-19T13:58:19;4.20;;;2.20;;
75554;SDS011;66087;53.126;17.960;2023-09-19T14:01:13;3.10;;;1.60;;
75554;SDS011;66087;53.126;17.960;2023-09-19T14:04:07;4.10;;;1.80;;
75554;SDS011;66087;53.126;17.960;2023-09-19T14:07:22;4.50;;;2.00;;
75554;SDS011;66087;53.126;17.960;2023-09-19T14:10:16;5.90;;;2.20;;
75554;SDS011;66087;53.126;17.960;2023-09-19T14:13:10;4.60;;;2.30;;
75554;SDS011;66087;53.126;17.960;2023-09-19T14:16:44;4.60;;;2.30;;
75554;SDS011;66087;53.126;17.960;2023-09-19T14:19:24;4.10;;;2.20;;
75554;SDS011;66087;53.126;17.960;2023-09-19T14:22:05;4.20;;;2.20;;
75554;SDS011;66087;53.126;17.960;2023-09-19T14:24:47;4.90;;;1.90;;
75554;SDS011;66087;53.126;17.960;2023-09-19T14:27:27;4.40;;;2.30;;
75554;SDS011;66087;53.126;17.960;2023-09-19T14:30:10;4.40;;;2.40;;
75554;SDS011;66087;53.126;17.960;2023-09-19T14:32:52;4.80;;;3.20;;
75554;SDS011;66087;53.126;17.960;2023-09-19T14:35:33;5.90;;;3.00;;
75554;SDS011;66087;53.126;17.960;2023-09-19T14:38:17;4.80;;;2.80;;
75554;SDS011;66087;53.126;17.960;2023-09-19T14:40:59;5.20;;;3.00;;
75554;SDS011;66087;53.126;17.960;2023-09-19T14:43:40;5.60;;;2.90;;
75554;SDS011;66087;53.126;17.960;2023-09-19T14:46:20;5.90;;;2.70;;
75554;SDS011;66087;53.126;17.960;2023-09-19T14:49:01;4.60;;;2.50;;
75554;SDS011;66087;53.126;17.960;2023-09-19T14:51:44;5.70;;;2.50;;
75554;SDS011;66087;53.126;17.960;2023-09-19T14:54:32;3.10;;;2.00;;
75554;SDS011;66087;53.126;17.960;2023-09-19T14:57:06;4.90;;;2.50;;
75554;SDS011;66087;53.126;17.960;2023-09-19T14:59:55;6.40;;;2.20;;
75554;SDS011;66087;53.126;17.960;2023-09-19T15:02:28;4.00;;;1.90;;
75554;SDS011;66087;53.126;17.960;2023-09-19T15:05:16;4.70;;;1.90;;
75554;SDS011;66087;53.126;17.960;2023-09-19T15:07:57;5.80;;;2.10;;
75554;SDS011;66087;53.126;17.960;2023-09-19T15:10:49;5.30;;;2.10;;
75554;SDS011;66087;53.126;17.960;2023-09-19T15:13:25;4.20;;;1.90;;
75554;SDS011;66087;53.126;17.960;2023-09-19T15:16:35;4.50;;;2.30;;
75554;SDS011;66087;53.126;17.960;2023-09-19T15:19:08;4.80;;;2.50;;
75554;SDS011;66087;53.126;17.960;2023-09-19T15:21:56;4.60;;;2.30;;
75554;SDS011;66087;53.126;17.960;2023-09-19T15:24:33;4.50;;;1.90;;
75554;SDS011;66087;53.126;17.960;2023-09-19T15:27:20;4.40;;;2.10;;
75554;SDS011;66087;53.126;17.960;2023-09-19T15:29:53;4.80;;;2.30;;
75554;SDS011;66087;53.126;17.960;2023-09-19T15:32:49;4.80;;;2.00;;
75554;SDS011;66087;53.126;17.960;2023-09-19T15:35:24;4.10;;;2.10;;
75554;SDS011;66087;53.126;17.960;2023-09-19T15:38:11;6.00;;;2.00;;
75554;SDS011;66087;53.126;17.960;2023-09-19T15:40:47;3.90;;;1.60;;
75554;SDS011;66087;53.126;17.960;2023-09-19T15:43:34;4.00;;;1.80;;
75554;SDS011;66087;53.126;17.960;2023-09-19T15:46:08;7.90;;;2.70;;
75554;SDS011;66087;53.126;17.960;2023-09-19T15:48:55;4.00;;;1.90;;
75554;SDS011;66087;53.126;17.960;2023-09-19T15:51:31;4.70;;;2.00;;
75554;SDS011;66087;53.126;17.960;2023-09-19T15:54:19;6.50;;;1.80;;
75554;SDS011;66087;53.126;17.960;2023-09-19T15:57:13;4.40;;;1.90;;
75554;SDS011;66087;53.126;17.960;2023-09-19T16:00:00;4.10;;;1.90;;
75554;SDS011;66087;53.126;17.960;2023-09-19T16:02:44;6.00;;;2.80;;
75554;SDS011;66087;53.126;17.960;2023-09-19T16:05:19;5.80;;;2.30;;
75554;SDS011;66087;53.126;17.960;2023-09-19T16:08:06;4.60;;;1.70;;
75554;SDS011;66087;53.126;17.960;2023-09-19T16:10:40;4.20;;;1.50;;
75554;SDS011;66087;53.126;17.960;2023-09-19T16:13:49;6.00;;;2.30;;
75554;SDS011;66087;53.126;17.960;2023-09-19T16:16:26;5.60;;;2.10;;
75554;SDS011;66087;53.126;17.960;2023-09-19T16:19:15;3.80;;;1.50;;
75554;SDS011;66087;53.126;17.960;2023-09-19T16:21:49;6.60;;;1.90;;
75554;SDS011;66087;53.126;17.960;2023-09-19T16:24:38;4.70;;;2.30;;
75554;SDS011;66087;53.126;17.960;2023-09-19T16:27:11;3.80;;;1.80;;
75554;SDS011;66087;53.126;17.960;2023-09-19T16:30:00;4.00;;;1.70;;
75554;SDS011;66087;53.126;17.960;2023-09-19T16:32:35;5.50;;;1.90;;
75554;SDS011;66087;53.126;17.960;2023-09-19T16:35:42;4.60;;;1.90;;
75554;SDS011;66087;53.126;17.960;2023-09-19T16:38:16;4.80;;;1.90;;
75554;SDS011;66087;53.126;17.960;2023-09-19T16:41:03;5.20;;;2.10;;
75554;SDS011;66087;53.126;17.960;2023-09-19T16:44:18;1.20;;;0.60;;
75554;SDS011;66087;53.126;17.960;2023-09-19T16:47:12;5.10;;;1.90;;
75554;SDS011;66087;53.126;17.960;2023-09-19T16:50:07;4.50;;;1.60;;
75554;SDS011;66087;53.126;17.960;2023-09-19T16:53:02;5.00;;;2.20;;
75554;SDS011;66087;53.126;17.960;2023-09-19T16:55:35;4.60;;;2.10;;
75554;SDS011;66087;53.126;17.960;2023-09-19T16:58:22;4.90;;;2.20;;
75554;SDS011;66087;53.126;17.960;2023-09-19T17:00:56;3.70;;;1.70;;
75554;SDS011;66087;53.126;17.960;2023-09-19T17:03:43;5.20;;;2.20;;